Bahia Uno — ECFT — position and weather

sailwx.info

Track history (hours):
 
Tides and Currents Weather Stations Pressure Air Temp Water Temp Dewpoint Dewpoint Depression Visibility Wind Speed Wind Dir Waves Ship Positions

Bahia Uno

Last reported at 2016-May-24 11:34 UTC. Time now 2016-May-24 11:49 UTC.
Position N 36°08' W 005°25'.

Length 70 m; draft 5.5 m.

Type: Ship. MMSI: 224127820.

Date/timePositionNaut miles runAvg speedWind from/ knotsBaromVisibWave heightAir tempDewpointWater temp
2016-May-24 11:34N 36°08' W 005°25'0 0.0
2016-May-24 10:33N 36°08' W 005°25'0 0.0
2016-May-24 09:31N 36°08' W 005°25'0 0.5
2016-May-24 08:33N 36°08' W 005°26'0 0.0
2016-May-24 06:09N 36°08' W 005°26'0 0.0
2016-May-24 05:34N 36°08' W 005°26'0 0.0
2016-May-24 04:33N 36°08' W 005°26'0 0.0
2016-May-24 03:24N 36°08' W 005°26'1 0.3
2016-May-23 23:20N 36°09' W 005°25'5 0.8
2016-May-23 17:20N 36°05' W 005°24'0 0.2
2016-May-23 16:32N 36°05' W 005°24'0 0.1
2016-May-23 15:33N 36°05' W 005°24'1 0.3
2016-May-23 12:22N 36°06' W 005°25'0 0.0
2016-May-23 11:05N 36°06' W 005°25'0 0.0
2016-May-23 07:33N 36°06' W 005°25'0 0.0
2016-May-22 19:33N 36°05' W 005°25'  
2016-May-20 04:28N 36°05' W 005°25'0 0.1
2016-May-20 03:33N 36°05' W 005°25'3 3.4
2016-May-20 02:33N 36°08' W 005°26'0 0.0
2016-May-20 01:11N 36°08' W 005°26'0 0.0
2016-May-19 23:08N 36°08' W 005°26'1 0.1
2016-May-19 12:33N 36°09' W 005°25'3 1.6
2016-May-19 10:33N 36°06' W 005°25'0 0.0
2016-May-19 09:31N 36°06' W 005°25'3 0.3
2016-May-19 00:25N 36°08' W 005°26'0 0.0
2016-May-17 04:20N 36°08' W 005°26'0 0.0
2016-May-16 21:29N 36°08' W 005°26'0 0.5
2016-May-16 20:33N 36°08' W 005°26'0 0.1
2016-May-16 15:05N 36°08' W 005°26'0 0.0
2016-May-16 13:06N 36°08' W 005°26'3 0.2
2016-May-15 19:15N 36°05' W 005°24'0 0.1
2016-May-15 18:33N 36°05' W 005°24'0 0.0
2016-May-15 17:32N 36°05' W 005°24'0 0.0
2016-May-15 16:34N 36°05' W 005°24'4 2.6
2016-May-15 15:11N 36°09' W 005°26'1 0.0
2016-May-14 15:28N 36°08' W 005°26'  
Track history (hours):
 
Tides and Currents Weather Stations Pressure Air Temp Water Temp Dewpoint Dewpoint Depression Visibility Wind Speed Wind Dir Waves Ship Positions

Bahia Uno

Last reported at 2016-May-24 11:34 UTC. Time now 2016-May-24 11:49 UTC.
Position N 36°08' W 005°25'.

Length 70 m; draft 5.5 m.

Type: Ship. MMSI: 224127820.

Date/timePositionNaut miles runAvg speedWind from/ knotsBaromVisibWave heightAir tempDewpointWater temp
2016-May-24 11:34N 36°08' W 005°25'0 0.0
2016-May-24 10:33N 36°08' W 005°25'0 0.0
2016-May-24 09:31N 36°08' W 005°25'0 0.5
2016-May-24 08:33N 36°08' W 005°26'0 0.0
2016-May-24 06:09N 36°08' W 005°26'0 0.0
2016-May-24 05:34N 36°08' W 005°26'0 0.0
2016-May-24 04:33N 36°08' W 005°26'0 0.0
2016-May-24 03:24N 36°08' W 005°26'1 0.3
2016-May-23 23:20N 36°09' W 005°25'5 0.8
2016-May-23 17:20N 36°05' W 005°24'0 0.2
2016-May-23 16:32N 36°05' W 005°24'0 0.1
2016-May-23 15:33N 36°05' W 005°24'1 0.3
2016-May-23 12:22N 36°06' W 005°25'0 0.0
2016-May-23 11:05N 36°06' W 005°25'0 0.0
2016-May-23 07:33N 36°06' W 005°25'0 0.0
2016-May-22 19:33N 36°05' W 005°25'  
2016-May-20 04:28N 36°05' W 005°25'0 0.1
2016-May-20 03:33N 36°05' W 005°25'3 3.4
2016-May-20 02:33N 36°08' W 005°26'0 0.0
2016-May-20 01:11N 36°08' W 005°26'0 0.0
2016-May-19 23:08N 36°08' W 005°26'1 0.1
2016-May-19 12:33N 36°09' W 005°25'3 1.6
2016-May-19 10:33N 36°06' W 005°25'0 0.0
2016-May-19 09:31N 36°06' W 005°25'3 0.3
2016-May-19 00:25N 36°08' W 005°26'0 0.0
2016-May-17 04:20N 36°08' W 005°26'0 0.0
2016-May-16 21:29N 36°08' W 005°26'0 0.5
2016-May-16 20:33N 36°08' W 005°26'0 0.1
2016-May-16 15:05N 36°08' W 005°26'0 0.0
2016-May-16 13:06N 36°08' W 005°26'3 0.2
2016-May-15 19:15N 36°05' W 005°24'0 0.1
2016-May-15 18:33N 36°05' W 005°24'0 0.0
2016-May-15 17:32N 36°05' W 005°24'0 0.0
2016-May-15 16:34N 36°05' W 005°24'4 2.6
2016-May-15 15:11N 36°09' W 005°26'1 0.0
2016-May-14 15:28N 36°08' W 005°26'  

Dump ship's entire track history